sensor_id;sensor_type;location;lat;lon;timestamp;P1;durP1;ratioP1;P2;durP2;ratioP2
22113;SDS011;11223;49.968;9.062;2022-12-07T00:00:14;7.80;;;5.17;;
22113;SDS011;11223;49.968;9.062;2022-12-07T00:02:40;7.65;;;5.63;;
22113;SDS011;11223;49.968;9.062;2022-12-07T00:05:05;6.77;;;4.80;;
22113;SDS011;11223;49.968;9.062;2022-12-07T00:07:32;7.80;;;4.88;;
22113;SDS011;11223;49.968;9.062;2022-12-07T00:09:57;6.53;;;4.70;;
22113;SDS011;11223;49.968;9.062;2022-12-07T00:12:23;7.07;;;5.00;;
22113;SDS011;11223;49.968;9.062;2022-12-07T00:14:48;8.40;;;5.80;;
22113;SDS011;11223;49.968;9.062;2022-12-07T00:17:14;8.73;;;5.60;;
22113;SDS011;11223;49.968;9.062;2022-12-07T00:19:39;7.23;;;5.43;;
22113;SDS011;11223;49.968;9.062;2022-12-07T00:22:05;10.63;;;6.27;;
22113;SDS011;11223;49.968;9.062;2022-12-07T00:24:31;6.93;;;5.40;;
22113;SDS011;11223;49.968;9.062;2022-12-07T00:26:56;6.63;;;5.47;;
22113;SDS011;11223;49.968;9.062;2022-12-07T00:29:22;7.63;;;5.50;;
22113;SDS011;11223;49.968;9.062;2022-12-07T00:31:48;7.90;;;5.47;;
22113;SDS011;11223;49.968;9.062;2022-12-07T00:34:15;10.70;;;6.43;;
22113;SDS011;11223;49.968;9.062;2022-12-07T00:36:42;8.77;;;5.75;;
22113;SDS011;11223;49.968;9.062;2022-12-07T00:39:08;9.20;;;6.20;;
22113;SDS011;11223;49.968;9.062;2022-12-07T00:41:34;11.87;;;5.40;;
22113;SDS011;11223;49.968;9.062;2022-12-07T00:43:59;8.30;;;5.67;;
22113;SDS011;11223;49.968;9.062;2022-12-07T00:46:25;7.17;;;5.40;;
22113;SDS011;11223;49.968;9.062;2022-12-07T00:48:57;8.67;;;6.00;;
22113;SDS011;11223;49.968;9.062;2022-12-07T00:51:23;8.65;;;6.15;;
22113;SDS011;11223;49.968;9.062;2022-12-07T00:53:50;7.30;;;6.18;;
22113;SDS011;11223;49.968;9.062;2022-12-07T00:56:17;8.25;;;5.28;;
22113;SDS011;11223;49.968;9.062;2022-12-07T01:01:21;8.32;;;5.90;;
22113;SDS011;11223;49.968;9.062;2022-12-07T01:03:48;7.57;;;5.35;;
22113;SDS011;11223;49.968;9.062;2022-12-07T01:06:16;9.80;;;7.50;;
22113;SDS011;11223;49.968;9.062;2022-12-07T01:08:43;8.65;;;6.65;;
22113;SDS011;11223;49.968;9.062;2022-12-07T01:11:09;9.55;;;6.80;;
22113;SDS011;11223;49.968;9.062;2022-12-07T01:13:38;9.50;;;6.35;;
22113;SDS011;11223;49.968;9.062;2022-12-07T01:16:05;7.07;;;6.30;;
22113;SDS011;11223;49.968;9.062;2022-12-07T01:18:32;7.50;;;4.70;;
22113;SDS011;11223;49.968;9.062;2022-12-07T01:21:00;8.57;;;6.45;;
22113;SDS011;11223;49.968;9.062;2022-12-07T01:23:27;8.30;;;5.28;;
22113;SDS011;11223;49.968;9.062;2022-12-07T01:25:55;9.35;;;5.25;;
22113;SDS011;11223;49.968;9.062;2022-12-07T01:28:21;9.07;;;6.45;;
22113;SDS011;11223;49.968;9.062;2022-12-07T01:30:57;8.03;;;5.67;;
22113;SDS011;11223;49.968;9.062;2022-12-07T01:33:22;8.13;;;5.70;;
22113;SDS011;11223;49.968;9.062;2022-12-07T01:35:48;11.17;;;6.77;;
22113;SDS011;11223;49.968;9.062;2022-12-07T01:38:14;7.17;;;5.30;;
22113;SDS011;11223;49.968;9.062;2022-12-07T01:40:39;8.40;;;6.03;;
22113;SDS011;11223;49.968;9.062;2022-12-07T01:43:24;11.57;;;5.60;;
22113;SDS011;11223;49.968;9.062;2022-12-07T01:45:51;7.35;;;5.43;;
22113;SDS011;11223;49.968;9.062;2022-12-07T01:48:18;9.33;;;5.53;;
22113;SDS011;11223;49.968;9.062;2022-12-07T01:50:47;8.70;;;5.85;;
22113;SDS011;11223;49.968;9.062;2022-12-07T01:53:15;7.15;;;6.07;;
22113;SDS011;11223;49.968;9.062;2022-12-07T01:55:43;9.40;;;6.60;;
22113;SDS011;11223;49.968;9.062;2022-12-07T01:58:12;10.93;;;7.32;;
22113;SDS011;11223;49.968;9.062;2022-12-07T02:00:40;6.13;;;5.32;;
22113;SDS011;11223;49.968;9.062;2022-12-07T02:03:07;7.82;;;5.45;;
22113;SDS011;11223;49.968;9.062;2022-12-07T02:05:34;8.57;;;5.85;;
22113;SDS011;11223;49.968;9.062;2022-12-07T02:08:01;7.35;;;5.75;;
22113;SDS011;11223;49.968;9.062;2022-12-07T02:10:29;11.55;;;6.25;;
22113;SDS011;11223;49.968;9.062;2022-12-07T02:12:59;7.65;;;6.40;;
22113;SDS011;11223;49.968;9.062;2022-12-07T02:21:33;7.45;;;6.05;;
22113;SDS011;11223;49.968;9.062;2022-12-07T02:24:09;9.48;;;6.20;;
22113;SDS011;11223;49.968;9.062;2022-12-07T02:29:13;7.07;;;5.93;;
22113;SDS011;11223;49.968;9.062;2022-12-07T02:32:06;8.70;;;5.85;;
22113;SDS011;11223;49.968;9.062;2022-12-07T02:34:47;6.72;;;5.00;;
22113;SDS011;11223;49.968;9.062;2022-12-07T02:40:16;6.95;;;5.40;;
22113;SDS011;11223;49.968;9.062;2022-12-07T02:42:59;6.40;;;5.07;;
22113;SDS011;11223;49.968;9.062;2022-12-07T02:45:31;11.45;;;7.65;;
22113;SDS011;11223;49.968;9.062;2022-12-07T02:47:59;8.18;;;5.88;;
22113;SDS011;11223;49.968;9.062;2022-12-07T02:50:26;10.82;;;5.60;;
22113;SDS011;11223;49.968;9.062;2022-12-07T02:52:52;8.88;;;5.68;;
22113;SDS011;11223;49.968;9.062;2022-12-07T02:55:18;7.00;;;4.90;;
22113;SDS011;11223;49.968;9.062;2022-12-07T02:58:02;11.32;;;6.85;;
22113;SDS011;11223;49.968;9.062;2022-12-07T03:00:31;9.07;;;6.28;;
22113;SDS011;11223;49.968;9.062;2022-12-07T03:03:10;9.75;;;6.05;;
22113;SDS011;11223;49.968;9.062;2022-12-07T03:08:42;8.60;;;6.53;;
22113;SDS011;11223;49.968;9.062;2022-12-07T03:11:09;10.57;;;6.20;;
22113;SDS011;11223;49.968;9.062;2022-12-07T03:16:19;10.10;;;6.57;;
22113;SDS011;11223;49.968;9.062;2022-12-07T03:18:52;8.73;;;6.50;;
22113;SDS011;11223;49.968;9.062;2022-12-07T03:21:26;8.60;;;6.32;;
22113;SDS011;11223;49.968;9.062;2022-12-07T03:23:58;11.00;;;6.80;;
22113;SDS011;11223;49.968;9.062;2022-12-07T03:26:29;13.57;;;6.95;;
22113;SDS011;11223;49.968;9.062;2022-12-07T03:29:00;10.82;;;7.45;;
22113;SDS011;11223;49.968;9.062;2022-12-07T03:31:32;11.07;;;6.78;;
22113;SDS011;11223;49.968;9.062;2022-12-07T03:39:28;10.20;;;8.00;;
22113;SDS011;11223;49.968;9.062;2022-12-07T03:41:58;9.50;;;5.57;;
22113;SDS011;11223;49.968;9.062;2022-12-07T03:44:26;9.43;;;6.30;;
22113;SDS011;11223;49.968;9.062;2022-12-07T03:51:53;11.73;;;7.88;;
22113;SDS011;11223;49.968;9.062;2022-12-07T03:54:22;12.55;;;6.65;;
22113;SDS011;11223;49.968;9.062;2022-12-07T03:56:54;10.52;;;7.88;;
22113;SDS011;11223;49.968;9.062;2022-12-07T03:59:20;10.75;;;7.25;;
22113;SDS011;11223;49.968;9.062;2022-12-07T04:01:53;11.70;;;8.27;;
22113;SDS011;11223;49.968;9.062;2022-12-07T04:04:21;11.27;;;7.20;;
22113;SDS011;11223;49.968;9.062;2022-12-07T04:06:49;9.32;;;7.20;;
22113;SDS011;11223;49.968;9.062;2022-12-07T04:09:14;10.73;;;6.80;;
22113;SDS011;11223;49.968;9.062;2022-12-07T04:11:41;10.20;;;7.63;;
22113;SDS011;11223;49.968;9.062;2022-12-07T04:14:07;9.63;;;7.20;;
22113;SDS011;11223;49.968;9.062;2022-12-07T04:16:52;8.73;;;6.20;;
22113;SDS011;11223;49.968;9.062;2022-12-07T04:19:22;9.68;;;6.28;;
22113;SDS011;11223;49.968;9.062;2022-12-07T04:21:49;9.80;;;6.78;;
22113;SDS011;11223;49.968;9.062;2022-12-07T04:24:15;12.20;;;6.27;;
22113;SDS011;11223;49.968;9.062;2022-12-07T04:26:41;12.23;;;7.25;;
22113;SDS011;11223;49.968;9.062;2022-12-07T04:29:08;9.40;;;5.85;;
22113;SDS011;11223;49.968;9.062;2022-12-07T04:31:34;9.15;;;5.80;;
22113;SDS011;11223;49.968;9.062;2022-12-07T04:34:00;8.40;;;5.35;;
22113;SDS011;11223;49.968;9.062;2022-12-07T04:36:26;8.40;;;6.60;;
22113;SDS011;11223;49.968;9.062;2022-12-07T04:38:55;12.93;;;7.30;;
22113;SDS011;11223;49.968;9.062;2022-12-07T04:41:21;8.68;;;5.68;;
22113;SDS011;11223;49.968;9.062;2022-12-07T04:44:01;10.38;;;5.75;;
22113;SDS011;11223;49.968;9.062;2022-12-07T04:46:28;8.15;;;5.93;;
22113;SDS011;11223;49.968;9.062;2022-12-07T04:48:55;8.80;;;6.70;;
22113;SDS011;11223;49.968;9.062;2022-12-07T04:51:22;12.27;;;6.87;;
22113;SDS011;11223;49.968;9.062;2022-12-07T04:53:50;10.35;;;7.70;;
22113;SDS011;11223;49.968;9.062;2022-12-07T04:56:16;13.05;;;7.07;;
22113;SDS011;11223;49.968;9.062;2022-12-07T04:58:43;10.35;;;5.80;;
22113;SDS011;11223;49.968;9.062;2022-12-07T05:01:09;8.65;;;4.97;;
22113;SDS011;11223;49.968;9.062;2022-12-07T05:03:36;9.57;;;5.93;;
22113;SDS011;11223;49.968;9.062;2022-12-07T05:06:02;7.75;;;5.00;;
22113;SDS011;11223;49.968;9.062;2022-12-07T05:08:28;9.10;;;6.90;;
22113;SDS011;11223;49.968;9.062;2022-12-07T05:10:54;6.40;;;4.63;;
22113;SDS011;11223;49.968;9.062;2022-12-07T05:13:19;13.50;;;6.00;;
22113;SDS011;11223;49.968;9.062;2022-12-07T05:15:48;7.23;;;5.90;;
22113;SDS011;11223;49.968;9.062;2022-12-07T05:18:14;9.80;;;6.10;;
22113;SDS011;11223;49.968;9.062;2022-12-07T05:20:40;11.47;;;5.60;;
22113;SDS011;11223;49.968;9.062;2022-12-07T05:23:06;8.10;;;5.50;;
22113;SDS011;11223;49.968;9.062;2022-12-07T05:25:32;6.93;;;4.97;;
22113;SDS011;11223;49.968;9.062;2022-12-07T05:27:58;7.00;;;5.03;;
22113;SDS011;11223;49.968;9.062;2022-12-07T05:30:24;7.27;;;5.37;;
22113;SDS011;11223;49.968;9.062;2022-12-07T05:32:50;8.75;;;4.20;;
22113;SDS011;11223;49.968;9.062;2022-12-07T05:35:17;9.07;;;4.77;;
22113;SDS011;11223;49.968;9.062;2022-12-07T05:37:43;7.20;;;5.53;;
22113;SDS011;11223;49.968;9.062;2022-12-07T05:40:09;5.03;;;4.20;;
22113;SDS011;11223;49.968;9.062;2022-12-07T05:42:35;7.90;;;4.82;;
22113;SDS011;11223;49.968;9.062;2022-12-07T05:45:01;6.67;;;4.53;;
22113;SDS011;11223;49.968;9.062;2022-12-07T05:47:26;5.73;;;4.70;;
22113;SDS011;11223;49.968;9.062;2022-12-07T05:49:52;6.10;;;3.60;;
22113;SDS011;11223;49.968;9.062;2022-12-07T05:52:18;9.10;;;5.60;;
22113;SDS011;11223;49.968;9.062;2022-12-07T05:54:43;6.87;;;4.90;;
22113;SDS011;11223;49.968;9.062;2022-12-07T05:57:09;8.97;;;4.77;;
22113;SDS011;11223;49.968;9.062;2022-12-07T05:59:35;9.30;;;4.93;;
22113;SDS011;11223;49.968;9.062;2022-12-07T06:02:01;5.73;;;4.33;;
22113;SDS011;11223;49.968;9.062;2022-12-07T06:04:30;8.13;;;5.78;;
22113;SDS011;11223;49.968;9.062;2022-12-07T06:06:57;9.05;;;5.70;;
22113;SDS011;11223;49.968;9.062;2022-12-07T06:09:24;7.20;;;5.90;;
22113;SDS011;11223;49.968;9.062;2022-12-07T06:11:51;7.95;;;5.00;;
22113;SDS011;11223;49.968;9.062;2022-12-07T06:14:36;7.68;;;5.68;;
22113;SDS011;11223;49.968;9.062;2022-12-07T06:17:01;7.15;;;5.18;;
22113;SDS011;11223;49.968;9.062;2022-12-07T06:19:27;7.43;;;5.83;;
22113;SDS011;11223;49.968;9.062;2022-12-07T06:21:53;7.37;;;5.27;;
22113;SDS011;11223;49.968;9.062;2022-12-07T06:24:19;11.88;;;4.80;;
22113;SDS011;11223;49.968;9.062;2022-12-07T06:26:45;9.57;;;5.40;;
22113;SDS011;11223;49.968;9.062;2022-12-07T06:29:11;8.00;;;5.03;;
22113;SDS011;11223;49.968;9.062;2022-12-07T06:31:37;6.25;;;4.07;;
22113;SDS011;11223;49.968;9.062;2022-12-07T06:34:04;5.60;;;4.80;;
22113;SDS011;11223;49.968;9.062;2022-12-07T06:36:32;5.03;;;4.40;;
22113;SDS011;11223;49.968;9.062;2022-12-07T06:38:57;5.93;;;4.83;;
22113;SDS011;11223;49.968;9.062;2022-12-07T06:41:23;5.20;;;4.43;;
22113;SDS011;11223;49.968;9.062;2022-12-07T06:43:49;9.35;;;5.60;;
22113;SDS011;11223;49.968;9.062;2022-12-07T06:46:15;6.45;;;4.60;;
22113;SDS011;11223;49.968;9.062;2022-12-07T06:48:41;6.00;;;4.57;;
22113;SDS011;11223;49.968;9.062;2022-12-07T06:51:07;7.68;;;4.50;;
22113;SDS011;11223;49.968;9.062;2022-12-07T06:53:33;6.72;;;4.55;;
22113;SDS011;11223;49.968;9.062;2022-12-07T06:55:59;9.27;;;4.75;;
22113;SDS011;11223;49.968;9.062;2022-12-07T06:58:25;8.40;;;5.10;;
22113;SDS011;11223;49.968;9.062;2022-12-07T07:00:51;7.27;;;4.67;;
22113;SDS011;11223;49.968;9.062;2022-12-07T07:03:16;9.73;;;5.13;;
22113;SDS011;11223;49.968;9.062;2022-12-07T07:05:43;9.53;;;5.03;;
22113;SDS011;11223;49.968;9.062;2022-12-07T07:08:09;5.70;;;4.40;;
22113;SDS011;11223;49.968;9.062;2022-12-07T07:10:35;7.25;;;4.28;;
22113;SDS011;11223;49.968;9.062;2022-12-07T07:13:01;8.60;;;4.80;;
22113;SDS011;11223;49.968;9.062;2022-12-07T07:15:27;7.47;;;5.33;;
22113;SDS011;11223;49.968;9.062;2022-12-07T07:17:53;8.60;;;6.13;;
22113;SDS011;11223;49.968;9.062;2022-12-07T07:20:19;6.77;;;5.13;;
22113;SDS011;11223;49.968;9.062;2022-12-07T07:22:44;9.13;;;5.10;;
22113;SDS011;11223;49.968;9.062;2022-12-07T07:25:10;7.50;;;5.90;;
22113;SDS011;11223;49.968;9.062;2022-12-07T07:27:36;8.17;;;4.93;;
22113;SDS011;11223;49.968;9.062;2022-12-07T07:30:02;7.27;;;5.60;;
22113;SDS011;11223;49.968;9.062;2022-12-07T07:32:28;6.65;;;5.43;;
22113;SDS011;11223;49.968;9.062;2022-12-07T07:34:54;5.27;;;4.57;;
22113;SDS011;11223;49.968;9.062;2022-12-07T07:37:19;8.33;;;5.87;;
22113;SDS011;11223;49.968;9.062;2022-12-07T07:39:45;7.30;;;5.30;;
22113;SDS011;11223;49.968;9.062;2022-12-07T07:42:10;8.10;;;4.27;;
22113;SDS011;11223;49.968;9.062;2022-12-07T07:44:36;8.10;;;5.33;;
22113;SDS011;11223;49.968;9.062;2022-12-07T07:47:02;7.70;;;5.30;;
22113;SDS011;11223;49.968;9.062;2022-12-07T07:49:28;7.03;;;5.30;;
22113;SDS011;11223;49.968;9.062;2022-12-07T07:51:53;6.50;;;5.00;;
22113;SDS011;11223;49.968;9.062;2022-12-07T07:54:19;9.43;;;5.47;;
22113;SDS011;11223;49.968;9.062;2022-12-07T07:56:45;8.17;;;6.07;;
22113;SDS011;11223;49.968;9.062;2022-12-07T07:59:10;8.20;;;5.10;;
22113;SDS011;11223;49.968;9.062;2022-12-07T08:01:36;10.00;;;6.77;;
22113;SDS011;11223;49.968;9.062;2022-12-07T08:04:01;8.67;;;6.60;;
22113;SDS011;11223;49.968;9.062;2022-12-07T08:06:27;7.83;;;5.30;;
22113;SDS011;11223;49.968;9.062;2022-12-07T08:08:53;7.67;;;5.20;;
22113;SDS011;11223;49.968;9.062;2022-12-07T08:11:18;4.50;;;4.00;;
22113;SDS011;11223;49.968;9.062;2022-12-07T08:13:47;7.37;;;4.67;;
22113;SDS011;11223;49.968;9.062;2022-12-07T08:16:13;6.90;;;5.45;;
22113;SDS011;11223;49.968;9.062;2022-12-07T08:18:40;6.25;;;4.82;;
22113;SDS011;11223;49.968;9.062;2022-12-07T08:21:07;8.23;;;5.22;;
22113;SDS011;11223;49.968;9.062;2022-12-07T08:23:36;8.45;;;5.68;;
22113;SDS011;11223;49.968;9.062;2022-12-07T08:26:05;7.93;;;6.00;;
22113;SDS011;11223;49.968;9.062;2022-12-07T08:28:33;8.82;;;5.78;;
22113;SDS011;11223;49.968;9.062;2022-12-07T08:31:06;7.00;;;5.20;;
22113;SDS011;11223;49.968;9.062;2022-12-07T08:33:37;9.90;;;6.15;;
22113;SDS011;11223;49.968;9.062;2022-12-07T08:36:03;7.68;;;6.25;;
22113;SDS011;11223;49.968;9.062;2022-12-07T08:38:31;10.40;;;7.18;;
22113;SDS011;11223;49.968;9.062;2022-12-07T08:40:57;9.73;;;5.47;;
22113;SDS011;11223;49.968;9.062;2022-12-07T08:43:24;8.85;;;5.47;;
22113;SDS011;11223;49.968;9.062;2022-12-07T08:45:53;9.60;;;6.40;;
22113;SDS011;11223;49.968;9.062;2022-12-07T08:48:31;6.40;;;5.80;;
22113;SDS011;11223;49.968;9.062;2022-12-07T08:50:58;8.40;;;6.13;;
22113;SDS011;11223;49.968;9.062;2022-12-07T08:53:24;6.60;;;5.57;;
22113;SDS011;11223;49.968;9.062;2022-12-07T08:55:49;7.97;;;5.80;;
22113;SDS011;11223;49.968;9.062;2022-12-07T08:58:15;9.13;;;5.90;;
22113;SDS011;11223;49.968;9.062;2022-12-07T09:00:41;10.43;;;6.30;;
22113;SDS011;11223;49.968;9.062;2022-12-07T09:03:07;9.00;;;6.30;;
22113;SDS011;11223;49.968;9.062;2022-12-07T09:05:32;8.63;;;7.30;;
22113;SDS011;11223;49.968;9.062;2022-12-07T09:08:00;7.82;;;5.63;;
22113;SDS011;11223;49.968;9.062;2022-12-07T09:10:26;8.15;;;5.78;;
22113;SDS011;11223;49.968;9.062;2022-12-07T09:12:53;6.07;;;4.57;;
22113;SDS011;11223;49.968;9.062;2022-12-07T09:15:18;7.50;;;5.47;;
22113;SDS011;11223;49.968;9.062;2022-12-07T09:17:44;8.47;;;5.87;;
22113;SDS011;11223;49.968;9.062;2022-12-07T09:20:10;9.30;;;6.20;;
22113;SDS011;11223;49.968;9.062;2022-12-07T09:22:36;7.55;;;6.25;;
22113;SDS011;11223;49.968;9.062;2022-12-07T09:25:02;8.83;;;6.03;;
22113;SDS011;11223;49.968;9.062;2022-12-07T09:27:29;7.30;;;5.20;;
22113;SDS011;11223;49.968;9.062;2022-12-07T09:29:54;9.83;;;6.30;;
22113;SDS011;11223;49.968;9.062;2022-12-07T09:32:20;5.97;;;4.03;;
22113;SDS011;11223;49.968;9.062;2022-12-07T09:34:46;5.53;;;4.55;;
22113;SDS011;11223;49.968;9.062;2022-12-07T09:37:12;8.20;;;6.50;;
22113;SDS011;11223;49.968;9.062;2022-12-07T09:39:38;8.70;;;5.57;;
22113;SDS011;11223;49.968;9.062;2022-12-07T09:42:04;6.30;;;4.80;;
22113;SDS011;11223;49.968;9.062;2022-12-07T09:44:31;7.53;;;4.68;;
22113;SDS011;11223;49.968;9.062;2022-12-07T09:46:57;7.00;;;5.00;;
22113;SDS011;11223;49.968;9.062;2022-12-07T09:49:24;7.32;;;4.57;;
22113;SDS011;11223;49.968;9.062;2022-12-07T09:54:42;7.90;;;4.35;;
22113;SDS011;11223;49.968;9.062;2022-12-07T09:57:11;6.72;;;5.60;;
22113;SDS011;11223;49.968;9.062;2022-12-07T09:59:40;7.40;;;4.50;;
22113;SDS011;11223;49.968;9.062;2022-12-07T10:02:40;5.68;;;4.22;;
22113;SDS011;11223;49.968;9.062;2022-12-07T10:05:07;7.43;;;5.45;;
22113;SDS011;11223;49.968;9.062;2022-12-07T10:07:38;4.63;;;4.05;;
22113;SDS011;11223;49.968;9.062;2022-12-07T10:10:06;7.20;;;6.50;;
22113;SDS011;11223;49.968;9.062;2022-12-07T10:12:54;7.25;;;4.85;;
22113;SDS011;11223;49.968;9.062;2022-12-07T10:18:17;6.60;;;5.15;;
22113;SDS011;11223;49.968;9.062;2022-12-07T10:21:02;5.25;;;4.60;;
22113;SDS011;11223;49.968;9.062;2022-12-07T10:23:58;6.63;;;4.88;;
22113;SDS011;11223;49.968;9.062;2022-12-07T10:26:26;6.28;;;5.25;;
22113;SDS011;11223;49.968;9.062;2022-12-07T10:31:41;4.18;;;3.78;;
22113;SDS011;11223;49.968;9.062;2022-12-07T10:34:20;6.60;;;4.93;;
22113;SDS011;11223;49.968;9.062;2022-12-07T10:36:47;6.15;;;5.00;;
22113;SDS011;11223;49.968;9.062;2022-12-07T10:39:16;6.27;;;5.37;;
22113;SDS011;11223;49.968;9.062;2022-12-07T10:41:58;6.05;;;4.35;;
22113;SDS011;11223;49.968;9.062;2022-12-07T10:44:33;5.80;;;4.40;;
22113;SDS011;11223;49.968;9.062;2022-12-07T10:50:07;6.75;;;4.35;;
22113;SDS011;11223;49.968;9.062;2022-12-07T11:00:37;3.30;;;3.00;;
22113;SDS011;11223;49.968;9.062;2022-12-07T11:03:26;4.72;;;3.25;;
22113;SDS011;11223;49.968;9.062;2022-12-07T11:06:01;4.43;;;4.00;;
22113;SDS011;11223;49.968;9.062;2022-12-07T11:11:51;3.50;;;3.20;;
22113;SDS011;11223;49.968;9.062;2022-12-07T11:17:36;3.92;;;3.47;;
22113;SDS011;11223;49.968;9.062;2022-12-07T11:25:51;4.07;;;3.67;;
22113;SDS011;11223;49.968;9.062;2022-12-07T11:28:26;5.88;;;5.32;;
22113;SDS011;11223;49.968;9.062;2022-12-07T11:31:23;3.88;;;2.70;;
22113;SDS011;11223;49.968;9.062;2022-12-07T11:34:11;3.95;;;3.55;;
22113;SDS011;11223;49.968;9.062;2022-12-07T11:36:51;7.03;;;3.53;;
22113;SDS011;11223;49.968;9.062;2022-12-07T11:41:47;3.75;;;3.40;;
22113;SDS011;11223;49.968;9.062;2022-12-07T11:44:26;4.78;;;2.97;;
22113;SDS011;11223;49.968;9.062;2022-12-07T11:47:07;5.30;;;3.78;;
22113;SDS011;11223;49.968;9.062;2022-12-07T11:52:23;6.88;;;4.35;;
22113;SDS011;11223;49.968;9.062;2022-12-07T11:54:53;5.75;;;3.65;;
22113;SDS011;11223;49.968;9.062;2022-12-07T11:57:24;4.13;;;3.33;;
22113;SDS011;11223;49.968;9.062;2022-12-07T12:00:03;4.28;;;3.88;;
22113;SDS011;11223;49.968;9.062;2022-12-07T12:02:34;5.78;;;4.57;;
22113;SDS011;11223;49.968;9.062;2022-12-07T12:05:23;5.68;;;4.85;;
22113;SDS011;11223;49.968;9.062;2022-12-07T12:07:52;3.80;;;3.38;;
22113;SDS011;11223;49.968;9.062;2022-12-07T12:21:49;4.40;;;3.58;;
22113;SDS011;11223;49.968;9.062;2022-12-07T12:24:28;3.95;;;3.35;;
22113;SDS011;11223;49.968;9.062;2022-12-07T12:27:16;4.88;;;3.75;;
22113;SDS011;11223;49.968;9.062;2022-12-07T12:29:56;2.33;;;2.13;;
22113;SDS011;11223;49.968;9.062;2022-12-07T12:32:31;5.05;;;3.58;;
22113;SDS011;11223;49.968;9.062;2022-12-07T12:35:26;3.65;;;3.35;;
22113;SDS011;11223;49.968;9.062;2022-12-07T12:37:52;3.25;;;2.70;;
22113;SDS011;11223;49.968;9.062;2022-12-07T12:45:28;3.30;;;2.70;;
22113;SDS011;11223;49.968;9.062;2022-12-07T12:56:43;3.90;;;3.15;;
22113;SDS011;11223;49.968;9.062;2022-12-07T13:01:47;4.47;;;3.42;;
22113;SDS011;11223;49.968;9.062;2022-12-07T13:04:57;2.63;;;2.28;;
22113;SDS011;11223;49.968;9.062;2022-12-07T13:07:13;3.13;;;2.92;;
22113;SDS011;11223;49.968;9.062;2022-12-07T13:15:50;3.75;;;2.85;;
22113;SDS011;11223;49.968;9.062;2022-12-07T13:28:43;3.40;;;2.80;;
22113;SDS011;11223;49.968;9.062;2022-12-07T13:33:55;4.50;;;2.75;;
22113;SDS011;11223;49.968;9.062;2022-12-07T13:36:22;2.50;;;2.30;;
22113;SDS011;11223;49.968;9.062;2022-12-07T13:38:53;3.33;;;3.00;;
22113;SDS011;11223;49.968;9.062;2022-12-07T13:41:24;6.63;;;3.60;;
22113;SDS011;11223;49.968;9.062;2022-12-07T13:46:20;2.53;;;2.30;;
22113;SDS011;11223;49.968;9.062;2022-12-07T13:48:52;2.50;;;2.30;;
22113;SDS011;11223;49.968;9.062;2022-12-07T13:51:34;3.25;;;2.78;;
22113;SDS011;11223;49.968;9.062;2022-12-07T13:54:08;3.22;;;2.25;;
22113;SDS011;11223;49.968;9.062;2022-12-07T13:56:36;5.20;;;3.42;;
22113;SDS011;11223;49.968;9.062;2022-12-07T13:59:04;4.95;;;2.65;;
22113;SDS011;11223;49.968;9.062;2022-12-07T14:01:37;5.20;;;2.10;;
22113;SDS011;11223;49.968;9.062;2022-12-07T14:04:16;2.23;;;2.00;;
22113;SDS011;11223;49.968;9.062;2022-12-07T14:07:17;3.53;;;2.13;;
22113;SDS011;11223;49.968;9.062;2022-12-07T14:09:59;4.18;;;3.85;;
22113;SDS011;11223;49.968;9.062;2022-12-07T14:12:27;2.67;;;2.17;;
22113;SDS011;11223;49.968;9.062;2022-12-07T14:14:54;3.35;;;2.40;;
22113;SDS011;11223;49.968;9.062;2022-12-07T14:17:21;3.55;;;2.30;;
22113;SDS011;11223;49.968;9.062;2022-12-07T14:19:50;3.13;;;2.60;;
22113;SDS011;11223;49.968;9.062;2022-12-07T14:22:53;1.90;;;1.73;;
22113;SDS011;11223;49.968;9.062;2022-12-07T14:25:20;2.30;;;2.10;;
22113;SDS011;11223;49.968;9.062;2022-12-07T14:27:48;3.50;;;2.45;;
22113;SDS011;11223;49.968;9.062;2022-12-07T14:30:29;3.05;;;2.22;;
22113;SDS011;11223;49.968;9.062;2022-12-07T14:32:57;2.70;;;2.33;;
22113;SDS011;11223;49.968;9.062;2022-12-07T14:35:27;5.20;;;2.20;;
22113;SDS011;11223;49.968;9.062;2022-12-07T14:37:53;4.40;;;2.65;;
22113;SDS011;11223;49.968;9.062;2022-12-07T14:40:25;3.77;;;2.50;;
22113;SDS011;11223;49.968;9.062;2022-12-07T14:42:56;4.30;;;2.38;;
22113;SDS011;11223;49.968;9.062;2022-12-07T14:45:25;5.07;;;2.58;;
22113;SDS011;11223;49.968;9.062;2022-12-07T14:47:51;4.17;;;2.87;;
22113;SDS011;11223;49.968;9.062;2022-12-07T14:50:17;4.90;;;2.33;;
22113;SDS011;11223;49.968;9.062;2022-12-07T14:52:46;4.25;;;2.60;;
22113;SDS011;11223;49.968;9.062;2022-12-07T14:55:20;7.93;;;2.65;;
22113;SDS011;11223;49.968;9.062;2022-12-07T14:57:49;2.30;;;2.10;;
22113;SDS011;11223;49.968;9.062;2022-12-07T15:00:15;6.83;;;1.80;;
22113;SDS011;11223;49.968;9.062;2022-12-07T15:02:43;3.90;;;2.25;;
22113;SDS011;11223;49.968;9.062;2022-12-07T15:05:09;2.80;;;2.40;;
22113;SDS011;11223;49.968;9.062;2022-12-07T15:07:35;3.37;;;2.90;;
22113;SDS011;11223;49.968;9.062;2022-12-07T15:10:01;4.15;;;3.33;;
22113;SDS011;11223;49.968;9.062;2022-12-07T15:12:27;3.90;;;2.25;;
22113;SDS011;11223;49.968;9.062;2022-12-07T15:14:53;3.70;;;2.57;;
22113;SDS011;11223;49.968;9.062;2022-12-07T15:17:19;7.10;;;2.20;;
22113;SDS011;11223;49.968;9.062;2022-12-07T15:19:44;1.70;;;1.60;;
22113;SDS011;11223;49.968;9.062;2022-12-07T15:22:10;4.27;;;3.03;;
22113;SDS011;11223;49.968;9.062;2022-12-07T15:24:36;3.07;;;1.90;;
22113;SDS011;11223;49.968;9.062;2022-12-07T15:27:02;3.13;;;1.95;;
22113;SDS011;11223;49.968;9.062;2022-12-07T15:29:28;3.15;;;2.92;;
22113;SDS011;11223;49.968;9.062;2022-12-07T15:31:54;2.40;;;2.20;;
22113;SDS011;11223;49.968;9.062;2022-12-07T15:34:20;2.97;;;2.03;;
22113;SDS011;11223;49.968;9.062;2022-12-07T15:36:46;2.40;;;1.30;;
22113;SDS011;11223;49.968;9.062;2022-12-07T15:39:12;3.73;;;1.97;;
22113;SDS011;11223;49.968;9.062;2022-12-07T15:41:37;2.33;;;2.10;;
22113;SDS011;11223;49.968;9.062;2022-12-07T15:44:03;4.27;;;1.70;;
22113;SDS011;11223;49.968;9.062;2022-12-07T15:46:48;3.05;;;1.70;;
22113;SDS011;11223;49.968;9.062;2022-12-07T15:49:18;2.37;;;1.83;;
22113;SDS011;11223;49.968;9.062;2022-12-07T15:51:44;3.05;;;1.75;;
22113;SDS011;11223;49.968;9.062;2022-12-07T15:54:29;2.47;;;1.60;;
22113;SDS011;11223;49.968;9.062;2022-12-07T15:56:55;2.28;;;1.42;;
22113;SDS011;11223;49.968;9.062;2022-12-07T15:59:21;2.50;;;2.00;;
22113;SDS011;11223;49.968;9.062;2022-12-07T16:01:47;5.00;;;2.30;;
22113;SDS011;11223;49.968;9.062;2022-12-07T16:04:12;7.93;;;2.00;;
22113;SDS011;11223;49.968;9.062;2022-12-07T16:06:38;2.83;;;1.57;;
22113;SDS011;11223;49.968;9.062;2022-12-07T16:09:04;2.33;;;2.13;;
22113;SDS011;11223;49.968;9.062;2022-12-07T16:11:30;3.45;;;2.63;;
22113;SDS011;11223;49.968;9.062;2022-12-07T16:13:56;2.55;;;2.08;;
22113;SDS011;11223;49.968;9.062;2022-12-07T16:16:22;2.23;;;1.90;;
22113;SDS011;11223;49.968;9.062;2022-12-07T16:18:48;2.03;;;1.83;;
22113;SDS011;11223;49.968;9.062;2022-12-07T16:21:15;2.85;;;2.28;;
22113;SDS011;11223;49.968;9.062;2022-12-07T16:23:41;2.17;;;1.98;;
22113;SDS011;11223;49.968;9.062;2022-12-07T16:26:08;4.30;;;2.70;;
22113;SDS011;11223;49.968;9.062;2022-12-07T16:28:36;4.15;;;2.63;;
22113;SDS011;11223;49.968;9.062;2022-12-07T16:31:13;3.15;;;2.40;;
22113;SDS011;11223;49.968;9.062;2022-12-07T16:33:41;2.08;;;1.60;;
22113;SDS011;11223;49.968;9.062;2022-12-07T16:36:09;3.05;;;2.05;;
22113;SDS011;11223;49.968;9.062;2022-12-07T16:38:36;2.40;;;2.00;;
22113;SDS011;11223;49.968;9.062;2022-12-07T16:41:03;3.63;;;2.40;;
22113;SDS011;11223;49.968;9.062;2022-12-07T16:43:29;4.25;;;2.20;;
22113;SDS011;11223;49.968;9.062;2022-12-07T16:45:55;3.37;;;2.27;;
22113;SDS011;11223;49.968;9.062;2022-12-07T16:48:21;3.07;;;1.93;;
22113;SDS011;11223;49.968;9.062;2022-12-07T16:50:46;2.70;;;1.87;;
22113;SDS011;11223;49.968;9.062;2022-12-07T16:53:13;2.30;;;2.10;;